sensor_id;sensor_type;location;lat;lon;timestamp;temperature;humidity
9668;DHT22;4872;48.316;10.650;2024-03-22T05:08:51;5.20;99.90
9668;DHT22;4872;48.316;10.650;2024-03-22T05:11:19;5.20;99.90
9668;DHT22;4872;48.316;10.650;2024-03-22T05:13:44;5.30;99.90
9668;DHT22;4872;48.316;10.650;2024-03-22T05:16:12;5.20;99.90
9668;DHT22;4872;48.316;10.650;2024-03-22T05:18:38;5.10;99.90
9668;DHT22;4872;48.316;10.650;2024-03-22T05:21:05;5.10;99.90
9668;DHT22;4872;48.316;10.650;2024-03-22T05:23:31;5.10;99.90
9668;DHT22;4872;48.316;10.650;2024-03-22T05:25:59;5.00;99.90
9668;DHT22;4872;48.316;10.650;2024-03-22T05:28:25;4.90;99.90
9668;DHT22;4872;48.316;10.650;2024-03-22T05:30:52;4.70;99.90
9668;DHT22;4872;48.316;10.650;2024-03-22T05:33:17;4.60;99.90
9668;DHT22;4872;48.316;10.650;2024-03-22T05:35:44;4.50;99.90
9668;DHT22;4872;48.316;10.650;2024-03-22T05:38:10;4.60;99.90
9668;DHT22;4872;48.316;10.650;2024-03-22T05:40:37;4.70;99.90
9668;DHT22;4872;48.316;10.650;2024-03-22T05:43:05;4.90;99.90
9668;DHT22;4872;48.316;10.650;2024-03-22T05:45:32;5.10;99.90
9668;DHT22;4872;48.316;10.650;2024-03-22T05:47:58;4.80;99.90
9668;DHT22;4872;48.316;10.650;2024-03-22T05:50:24;4.70;99.90
9668;DHT22;4872;48.316;10.650;2024-03-22T05:52:50;4.90;99.90
9668;DHT22;4872;48.316;10.650;2024-03-22T05:55:17;5.10;99.90
9668;DHT22;4872;48.316;10.650;2024-03-22T05:57:43;5.30;99.90
9668;DHT22;4872;48.316;10.650;2024-03-22T06:00:12;5.40;99.90
9668;DHT22;4872;48.316;10.650;2024-03-22T06:02:39;5.60;99.90
9668;DHT22;4872;48.316;10.650;2024-03-22T06:05:06;6.00;99.90
9668;DHT22;4872;48.316;10.650;2024-03-22T06:07:31;6.10;99.90
9668;DHT22;4872;48.316;10.650;2024-03-22T06:10:06;6.50;99.90
9668;DHT22;4872;48.316;10.650;2024-03-22T06:12:32;6.70;99.90
9668;DHT22;4872;48.316;10.650;2024-03-22T06:14:59;7.10;99.90
9668;DHT22;4872;48.316;10.650;2024-03-22T06:17:53;7.40;99.90
9668;DHT22;4872;48.316;10.650;2024-03-22T06:20:20;7.70;99.90
9668;DHT22;4872;48.316;10.650;2024-03-22T06:22:45;7.90;99.70
9668;DHT22;4872;48.316;10.650;2024-03-22T06:25:13;8.00;99.60
9668;DHT22;4872;48.316;10.650;2024-03-22T06:27:38;8.10;99.40
9668;DHT22;4872;48.316;10.650;2024-03-22T06:30:06;8.30;99.60
9668;DHT22;4872;48.316;10.650;2024-03-22T06:32:33;8.60;99.60
9668;DHT22;4872;48.316;10.650;2024-03-22T06:35:01;8.90;99.10
9668;DHT22;4872;48.316;10.650;2024-03-22T06:37:28;9.20;98.90
9668;DHT22;4872;48.316;10.650;2024-03-22T06:39:55;9.40;98.40
9668;DHT22;4872;48.316;10.650;2024-03-22T06:42:21;9.60;98.00
9668;DHT22;4872;48.316;10.650;2024-03-22T06:44:49;9.70;98.10
9668;DHT22;4872;48.316;10.650;2024-03-22T06:47:15;9.90;97.80
9668;DHT22;4872;48.316;10.650;2024-03-22T06:49:42;10.10;97.40
9668;DHT22;4872;48.316;10.650;2024-03-22T06:52:09;10.20;97.10
9668;DHT22;4872;48.316;10.650;2024-03-22T06:54:36;10.20;97.10
9668;DHT22;4872;48.316;10.650;2024-03-22T06:57:02;10.10;96.80
9668;DHT22;4872;48.316;10.650;2024-03-22T06:59:28;10.00;97.00
9668;DHT22;4872;48.316;10.650;2024-03-22T07:01:54;10.10;97.30
9668;DHT22;4872;48.316;10.650;2024-03-22T07:04:21;9.90;97.80
9668;DHT22;4872;48.316;10.650;2024-03-22T07:06:47;9.80;97.70
9668;DHT22;4872;48.316;10.650;2024-03-22T07:09:15;9.80;98.20
9668;DHT22;4872;48.316;10.650;2024-03-22T07:11:41;10.00;97.80
9668;DHT22;4872;48.316;10.650;2024-03-22T07:14:07;10.30;97.60
9668;DHT22;4872;48.316;10.650;2024-03-22T07:16:33;10.60;97.60
9668;DHT22;4872;48.316;10.650;2024-03-22T07:19:02;11.00;97.40
9668;DHT22;4872;48.316;10.650;2024-03-22T07:21:29;11.40;97.20
9668;DHT22;4872;48.316;10.650;2024-03-22T07:23:55;11.70;97.10
9668;DHT22;4872;48.316;10.650;2024-03-22T07:26:23;12.10;97.00
9668;DHT22;4872;48.316;10.650;2024-03-22T07:28:49;12.40;96.60
9668;DHT22;4872;48.316;10.650;2024-03-22T07:31:15;12.70;96.10
9668;DHT22;4872;48.316;10.650;2024-03-22T07:33:41;13.00;96.10
9668;DHT22;4872;48.316;10.650;2024-03-22T07:36:08;13.10;95.60
9668;DHT22;4872;48.316;10.650;2024-03-22T07:38:34;13.50;95.40
9668;DHT22;4872;48.316;10.650;2024-03-22T07:41:01;13.80;95.00
9668;DHT22;4872;48.316;10.650;2024-03-22T07:43:28;13.60;94.50
9668;DHT22;4872;48.316;10.650;2024-03-22T07:45:55;13.90;95.00
9668;DHT22;4872;48.316;10.650;2024-03-22T07:48:21;14.20;93.70
9668;DHT22;4872;48.316;10.650;2024-03-22T07:50:56;14.10;93.30
9668;DHT22;4872;48.316;10.650;2024-03-22T07:53:21;14.10;93.50
9668;DHT22;4872;48.316;10.650;2024-03-22T07:55:48;13.90;93.50
9668;DHT22;4872;48.316;10.650;2024-03-22T07:58:14;13.50;93.90
9668;DHT22;4872;48.316;10.650;2024-03-22T08:00:42;13.10;94.40
9668;DHT22;4872;48.316;10.650;2024-03-22T08:03:08;13.20;94.50
9668;DHT22;4872;48.316;10.650;2024-03-22T08:05:40;13.70;95.00
9668;DHT22;4872;48.316;10.650;2024-03-22T08:08:06;13.90;94.30
9668;DHT22;4872;48.316;10.650;2024-03-22T08:10:33;14.30;94.60
9668;DHT22;4872;48.316;10.650;2024-03-22T08:12:59;14.00;94.30
9668;DHT22;4872;48.316;10.650;2024-03-22T08:15:27;13.80;94.50
9668;DHT22;4872;48.316;10.650;2024-03-22T08:17:54;13.70;94.00
9668;DHT22;4872;48.316;10.650;2024-03-22T08:20:22;13.80;93.30
9668;DHT22;4872;48.316;10.650;2024-03-22T08:22:48;13.70;93.40
9668;DHT22;4872;48.316;10.650;2024-03-22T08:25:15;14.00;93.30
9668;DHT22;4872;48.316;10.650;2024-03-22T08:27:42;14.20;93.30
9668;DHT22;4872;48.316;10.650;2024-03-22T08:30:10;14.20;92.80
9668;DHT22;4872;48.316;10.650;2024-03-22T08:32:36;14.00;92.60
9668;DHT22;4872;48.316;10.650;2024-03-22T08:35:05;13.90;92.80
9668;DHT22;4872;48.316;10.650;2024-03-22T08:37:33;14.00;93.60
9668;DHT22;4872;48.316;10.650;2024-03-22T08:40:00;14.10;93.30
9668;DHT22;4872;48.316;10.650;2024-03-22T08:42:25;14.40;93.10
9668;DHT22;4872;48.316;10.650;2024-03-22T08:44:52;14.50;92.50
9668;DHT22;4872;48.316;10.650;2024-03-22T08:47:18;14.50;92.60
9668;DHT22;4872;48.316;10.650;2024-03-22T08:49:45;14.70;92.50
9668;DHT22;4872;48.316;10.650;2024-03-22T08:52:12;14.90;92.20
9668;DHT22;4872;48.316;10.650;2024-03-22T08:54:39;15.10;91.90
9668;DHT22;4872;48.316;10.650;2024-03-22T08:57:05;15.20;92.10
9668;DHT22;4872;48.316;10.650;2024-03-22T08:59:32;15.20;91.90
9668;DHT22;4872;48.316;10.650;2024-03-22T09:01:58;15.40;90.80
9668;DHT22;4872;48.316;10.650;2024-03-22T09:04:25;15.60;91.40
9668;DHT22;4872;48.316;10.650;2024-03-22T09:06:51;16.30;91.50
9668;DHT22;4872;48.316;10.650;2024-03-22T09:09:19;16.50;90.60
9668;DHT22;4872;48.316;10.650;2024-03-22T09:11:45;16.60;90.40
9668;DHT22;4872;48.316;10.650;2024-03-22T09:14:17;16.50;90.40
9668;DHT22;4872;48.316;10.650;2024-03-22T09:16:43;15.60;91.10
9668;DHT22;4872;48.316;10.650;2024-03-22T09:19:10;15.20;91.00
9668;DHT22;4872;48.316;10.650;2024-03-22T09:21:36;15.20;91.40
9668;DHT22;4872;48.316;10.650;2024-03-22T09:24:03;15.20;91.70
9668;DHT22;4872;48.316;10.650;2024-03-22T09:26:32;15.00;91.50
9668;DHT22;4872;48.316;10.650;2024-03-22T09:28:59;14.70;91.70
9668;DHT22;4872;48.316;10.650;2024-03-22T09:31:25;14.70;91.70
9668;DHT22;4872;48.316;10.650;2024-03-22T09:33:51;14.60;92.00
9668;DHT22;4872;48.316;10.650;2024-03-22T09:36:17;14.80;91.70
9668;DHT22;4872;48.316;10.650;2024-03-22T09:38:44;14.80;92.00
9668;DHT22;4872;48.316;10.650;2024-03-22T09:41:10;14.90;92.00
9668;DHT22;4872;48.316;10.650;2024-03-22T09:43:40;15.00;92.20
9668;DHT22;4872;48.316;10.650;2024-03-22T09:46:06;14.70;91.80
9668;DHT22;4872;48.316;10.650;2024-03-22T09:48:33;14.90;92.00
9668;DHT22;4872;48.316;10.650;2024-03-22T09:51:00;14.70;92.70
9668;DHT22;4872;48.316;10.650;2024-03-22T09:53:29;14.80;92.80
9668;DHT22;4872;48.316;10.650;2024-03-22T09:55:57;14.80;92.50
9668;DHT22;4872;48.316;10.650;2024-03-22T09:58:27;14.60;92.20
9668;DHT22;4872;48.316;10.650;2024-03-22T10:00:54;14.70;92.80
9668;DHT22;4872;48.316;10.650;2024-03-22T10:03:26;14.70;91.80
9668;DHT22;4872;48.316;10.650;2024-03-22T10:05:51;14.50;92.60
9668;DHT22;4872;48.316;10.650;2024-03-22T10:08:18;14.50;92.70
9668;DHT22;4872;48.316;10.650;2024-03-22T10:10:44;14.70;92.40
9668;DHT22;4872;48.316;10.650;2024-03-22T10:13:11;14.50;91.50
9668;DHT22;4872;48.316;10.650;2024-03-22T10:15:37;14.50;92.90
9668;DHT22;4872;48.316;10.650;2024-03-22T10:18:07;14.60;92.10
9668;DHT22;4872;48.316;10.650;2024-03-22T10:20:35;14.60;91.90
9668;DHT22;4872;48.316;10.650;2024-03-22T10:23:02;14.40;91.50
9668;DHT22;4872;48.316;10.650;2024-03-22T10:25:28;14.30;91.60
9668;DHT22;4872;48.316;10.650;2024-03-22T10:28:09;14.20;91.10
9668;DHT22;4872;48.316;10.650;2024-03-22T10:30:37;14.30;91.40
9668;DHT22;4872;48.316;10.650;2024-03-22T10:33:07;14.40;92.20
9668;DHT22;4872;48.316;10.650;2024-03-22T10:35:35;14.50;91.70
9668;DHT22;4872;48.316;10.650;2024-03-22T10:38:02;14.60;91.40
9668;DHT22;4872;48.316;10.650;2024-03-22T10:40:29;14.60;91.60
9668;DHT22;4872;48.316;10.650;2024-03-22T10:42:56;14.60;91.30
9668;DHT22;4872;48.316;10.650;2024-03-22T10:45:23;14.80;91.10
9668;DHT22;4872;48.316;10.650;2024-03-22T10:47:53;14.90;91.10
9668;DHT22;4872;48.316;10.650;2024-03-22T10:50:23;15.10;91.20
9668;DHT22;4872;48.316;10.650;2024-03-22T10:52:54;15.20;91.30
9668;DHT22;4872;48.316;10.650;2024-03-22T10:55:26;15.60;91.10
9668;DHT22;4872;48.316;10.650;2024-03-22T10:57:54;16.00;91.40
9668;DHT22;4872;48.316;10.650;2024-03-22T11:00:27;16.50;90.20
9668;DHT22;4872;48.316;10.650;2024-03-22T11:02:53;17.00;88.90
9668;DHT22;4872;48.316;10.650;2024-03-22T11:05:20;17.20;88.30
9668;DHT22;4872;48.316;10.650;2024-03-22T11:07:57;17.40;87.50
9668;DHT22;4872;48.316;10.650;2024-03-22T11:10:28;17.70;87.00
9668;DHT22;4872;48.316;10.650;2024-03-22T11:12:53;18.10;85.30
9668;DHT22;4872;48.316;10.650;2024-03-22T11:15:22;18.10;85.00
9668;DHT22;4872;48.316;10.650;2024-03-22T11:17:48;18.30;86.60
9668;DHT22;4872;48.316;10.650;2024-03-22T11:23:11;18.80;82.90
9668;DHT22;4872;48.316;10.650;2024-03-22T11:25:41;19.20;82.50
9668;DHT22;4872;48.316;10.650;2024-03-22T11:28:07;19.90;82.60
9668;DHT22;4872;48.316;10.650;2024-03-22T11:30:37;20.30;79.60
9668;DHT22;4872;48.316;10.650;2024-03-22T11:33:06;20.70;76.90
9668;DHT22;4872;48.316;10.650;2024-03-22T11:35:33;20.70;77.60
9668;DHT22;4872;48.316;10.650;2024-03-22T11:38:01;20.80;77.20
9668;DHT22;4872;48.316;10.650;2024-03-22T11:40:30;21.10;76.10
9668;DHT22;4872;48.316;10.650;2024-03-22T11:42:57;20.80;76.20
9668;DHT22;4872;48.316;10.650;2024-03-22T11:45:26;21.00;75.70
9668;DHT22;4872;48.316;10.650;2024-03-22T11:47:53;21.20;77.20
9668;DHT22;4872;48.316;10.650;2024-03-22T11:50:20;21.00;76.00
9668;DHT22;4872;48.316;10.650;2024-03-22T11:52:46;20.80;75.50
9668;DHT22;4872;48.316;10.650;2024-03-22T11:55:15;21.30;74.20
9668;DHT22;4872;48.316;10.650;2024-03-22T11:57:41;21.80;71.90
9668;DHT22;4872;48.316;10.650;2024-03-22T12:00:08;20.80;72.50
9668;DHT22;4872;48.316;10.650;2024-03-22T12:02:35;20.90;72.00
9668;DHT22;4872;48.316;10.650;2024-03-22T12:05:03;20.70;72.10
9668;DHT22;4872;48.316;10.650;2024-03-22T12:07:29;20.80;72.90
9668;DHT22;4872;48.316;10.650;2024-03-22T12:09:56;20.60;72.90
9668;DHT22;4872;48.316;10.650;2024-03-22T12:12:24;20.80;73.30
9668;DHT22;4872;48.316;10.650;2024-03-22T12:14:51;20.00;73.10
9668;DHT22;4872;48.316;10.650;2024-03-22T12:17:17;19.30;74.00
9668;DHT22;4872;48.316;10.650;2024-03-22T12:19:43;19.60;76.50
9668;DHT22;4872;48.316;10.650;2024-03-22T12:22:09;19.50;74.60
9668;DHT22;4872;48.316;10.650;2024-03-22T12:24:36;19.20;74.20
9668;DHT22;4872;48.316;10.650;2024-03-22T12:27:02;19.70;73.10
9668;DHT22;4872;48.316;10.650;2024-03-22T12:29:32;19.30;73.20
9668;DHT22;4872;48.316;10.650;2024-03-22T12:31:58;19.40;73.60
9668;DHT22;4872;48.316;10.650;2024-03-22T12:34:27;19.80;72.70
9668;DHT22;4872;48.316;10.650;2024-03-22T12:36:52;20.00;72.80
9668;DHT22;4872;48.316;10.650;2024-03-22T12:39:19;20.30;71.60
9668;DHT22;4872;48.316;10.650;2024-03-22T12:41:45;20.20;72.10
9668;DHT22;4872;48.316;10.650;2024-03-22T12:44:12;19.70;70.90
9668;DHT22;4872;48.316;10.650;2024-03-22T12:46:39;19.70;71.50
9668;DHT22;4872;48.316;10.650;2024-03-22T12:49:11;19.80;72.60
9668;DHT22;4872;48.316;10.650;2024-03-22T12:51:37;19.70;72.10
9668;DHT22;4872;48.316;10.650;2024-03-22T12:54:04;19.50;72.50
9668;DHT22;4872;48.316;10.650;2024-03-22T12:56:31;19.50;71.20
9668;DHT22;4872;48.316;10.650;2024-03-22T12:58:58;19.30;71.90
9668;DHT22;4872;48.316;10.650;2024-03-22T13:01:24;19.00;70.30
9668;DHT22;4872;48.316;10.650;2024-03-22T13:03:52;18.90;71.70
9668;DHT22;4872;48.316;10.650;2024-03-22T13:06:18;19.10;71.90
9668;DHT22;4872;48.316;10.650;2024-03-22T13:08:45;19.30;73.50
9668;DHT22;4872;48.316;10.650;2024-03-22T13:11:11;19.20;72.30
9668;DHT22;4872;48.316;10.650;2024-03-22T13:13:38;19.40;72.30
9668;DHT22;4872;48.316;10.650;2024-03-22T13:16:04;19.20;71.90
9668;DHT22;4872;48.316;10.650;2024-03-22T13:18:32;19.40;72.70
9668;DHT22;4872;48.316;10.650;2024-03-22T13:20:59;19.60;72.60
9668;DHT22;4872;48.316;10.650;2024-03-22T13:23:27;19.50;69.20
9668;DHT22;4872;48.316;10.650;2024-03-22T13:25:54;19.20;66.80
9668;DHT22;4872;48.316;10.650;2024-03-22T13:28:21;19.10;67.00
9668;DHT22;4872;48.316;10.650;2024-03-22T13:30:48;18.90;68.70
9668;DHT22;4872;48.316;10.650;2024-03-22T13:33:14;18.80;67.50
9668;DHT22;4872;48.316;10.650;2024-03-22T13:35:44;18.60;69.20
9668;DHT22;4872;48.316;10.650;2024-03-22T13:38:12;18.30;68.40
9668;DHT22;4872;48.316;10.650;2024-03-22T13:40:39;18.30;69.60
9668;DHT22;4872;48.316;10.650;2024-03-22T13:43:05;18.30;68.80
9668;DHT22;4872;48.316;10.650;2024-03-22T13:45:32;18.20;68.50
9668;DHT22;4872;48.316;10.650;2024-03-22T13:48:10;18.20;69.00
9668;DHT22;4872;48.316;10.650;2024-03-22T13:50:37;18.30;68.20
9668;DHT22;4872;48.316;10.650;2024-03-22T13:53:03;18.30;68.50
9668;DHT22;4872;48.316;10.650;2024-03-22T13:55:32;18.30;69.20
9668;DHT22;4872;48.316;10.650;2024-03-22T13:57:58;18.50;69.80
9668;DHT22;4872;48.316;10.650;2024-03-22T14:00:26;19.00;69.50
9668;DHT22;4872;48.316;10.650;2024-03-22T14:02:52;18.90;69.50
9668;DHT22;4872;48.316;10.650;2024-03-22T14:05:21;19.10;68.70
9668;DHT22;4872;48.316;10.650;2024-03-22T14:07:46;19.10;69.00
9668;DHT22;4872;48.316;10.650;2024-03-22T14:10:13;18.90;69.30
9668;DHT22;4872;48.316;10.650;2024-03-22T14:12:43;18.70;69.30
9668;DHT22;4872;48.316;10.650;2024-03-22T14:15:10;18.60;69.50
9668;DHT22;4872;48.316;10.650;2024-03-22T14:17:36;18.80;70.00
9668;DHT22;4872;48.316;10.650;2024-03-22T14:20:04;18.80;69.80
9668;DHT22;4872;48.316;10.650;2024-03-22T14:22:35;18.80;71.60
9668;DHT22;4872;48.316;10.650;2024-03-22T14:25:02;19.20;71.10
9668;DHT22;4872;48.316;10.650;2024-03-22T14:27:29;19.40;70.20
9668;DHT22;4872;48.316;10.650;2024-03-22T14:29:57;19.20;69.80
9668;DHT22;4872;48.316;10.650;2024-03-22T14:32:23;18.60;69.30
9668;DHT22;4872;48.316;10.650;2024-03-22T14:34:50;18.70;70.40
9668;DHT22;4872;48.316;10.650;2024-03-22T14:37:15;18.90;69.80
9668;DHT22;4872;48.316;10.650;2024-03-22T14:39:42;19.30;68.90
9668;DHT22;4872;48.316;10.650;2024-03-22T14:42:08;19.70;69.30
9668;DHT22;4872;48.316;10.650;2024-03-22T14:44:35;20.00;68.50
9668;DHT22;4872;48.316;10.650;2024-03-22T14:47:02;20.60;68.70
9668;DHT22;4872;48.316;10.650;2024-03-22T14:49:29;21.20;68.10
9668;DHT22;4872;48.316;10.650;2024-03-22T14:51:55;22.30;66.80
9668;DHT22;4872;48.316;10.650;2024-03-22T14:54:23;22.80;65.20
9668;DHT22;4872;48.316;10.650;2024-03-22T14:56:49;23.60;64.20
9668;DHT22;4872;48.316;10.650;2024-03-22T14:59:16;23.80;62.00
9668;DHT22;4872;48.316;10.650;2024-03-22T15:01:41;24.30;60.60
9668;DHT22;4872;48.316;10.650;2024-03-22T15:04:10;25.70;60.30
9668;DHT22;4872;48.316;10.650;2024-03-22T15:06:35;25.30;58.40
9668;DHT22;4872;48.316;10.650;2024-03-22T15:09:03;24.70;57.30
9668;DHT22;4872;48.316;10.650;2024-03-22T15:11:35;24.40;56.80
9668;DHT22;4872;48.316;10.650;2024-03-22T15:14:02;23.80;57.90
9668;DHT22;4872;48.316;10.650;2024-03-22T15:16:28;22.50;56.30
9668;DHT22;4872;48.316;10.650;2024-03-22T15:18:55;21.70;56.80
9668;DHT22;4872;48.316;10.650;2024-03-22T15:21:23;21.10;57.90
9668;DHT22;4872;48.316;10.650;2024-03-22T15:23:50;20.50;57.30
9668;DHT22;4872;48.316;10.650;2024-03-22T15:26:15;20.20;56.70
9668;DHT22;4872;48.316;10.650;2024-03-22T15:28:42;20.30;56.60
9668;DHT22;4872;48.316;10.650;2024-03-22T15:31:08;19.90;56.70
9668;DHT22;4872;48.316;10.650;2024-03-22T15:33:35;19.80;56.20
9668;DHT22;4872;48.316;10.650;2024-03-22T15:36:01;20.00;55.80
9668;DHT22;4872;48.316;10.650;2024-03-22T15:38:29;19.60;55.40
9668;DHT22;4872;48.316;10.650;2024-03-22T15:40:55;19.30;56.50
9668;DHT22;4872;48.316;10.650;2024-03-22T15:43:22;19.00;57.40
9668;DHT22;4872;48.316;10.650;2024-03-22T15:45:48;18.90;58.10
9668;DHT22;4872;48.316;10.650;2024-03-22T15:48:15;18.50;56.60
9668;DHT22;4872;48.316;10.650;2024-03-22T15:50:46;18.20;57.00
9668;DHT22;4872;48.316;10.650;2024-03-22T15:53:12;18.10;58.00
9668;DHT22;4872;48.316;10.650;2024-03-22T15:55:40;18.00;58.60
9668;DHT22;4872;48.316;10.650;2024-03-22T15:58:06;18.00;59.00
9668;DHT22;4872;48.316;10.650;2024-03-22T16:00:32;17.90;59.10
9668;DHT22;4872;48.316;10.650;2024-03-22T16:02:59;17.80;59.50
9668;DHT22;4872;48.316;10.650;2024-03-22T16:05:25;17.80;59.20
9668;DHT22;4872;48.316;10.650;2024-03-22T16:07:52;17.70;59.70
9668;DHT22;4872;48.316;10.650;2024-03-22T16:10:18;17.50;59.10
9668;DHT22;4872;48.316;10.650;2024-03-22T16:12:46;17.50;59.60
9668;DHT22;4872;48.316;10.650;2024-03-22T16:15:12;17.30;59.50
9668;DHT22;4872;48.316;10.650;2024-03-22T16:17:39;17.20;59.60
9668;DHT22;4872;48.316;10.650;2024-03-22T16:20:07;17.30;60.30
9668;DHT22;4872;48.316;10.650;2024-03-22T16:22:35;17.20;60.80
9668;DHT22;4872;48.316;10.650;2024-03-22T16:25:00;17.30;61.20
9668;DHT22;4872;48.316;10.650;2024-03-22T16:27:27;17.40;61.50
9668;DHT22;4872;48.316;10.650;2024-03-22T16:29:54;17.50;62.10
9668;DHT22;4872;48.316;10.650;2024-03-22T16:32:21;17.50;62.10
9668;DHT22;4872;48.316;10.650;2024-03-22T16:34:47;17.50;62.20
9668;DHT22;4872;48.316;10.650;2024-03-22T16:37:14;17.30;62.00
9668;DHT22;4872;48.316;10.650;2024-03-22T16:39:40;17.30;60.90
9668;DHT22;4872;48.316;10.650;2024-03-22T16:42:07;17.10;60.60
9668;DHT22;4872;48.316;10.650;2024-03-22T16:44:33;16.70;59.60
9668;DHT22;4872;48.316;10.650;2024-03-22T16:47:01;16.80;60.60
9668;DHT22;4872;48.316;10.650;2024-03-22T16:49:27;16.80;60.30
9668;DHT22;4872;48.316;10.650;2024-03-22T16:51:54;16.70;60.30
9668;DHT22;4872;48.316;10.650;2024-03-22T16:54:19;16.70;60.30
9668;DHT22;4872;48.316;10.650;2024-03-22T16:56:46;16.50;60.50
9668;DHT22;4872;48.316;10.650;2024-03-22T16:59:12;16.60;61.10
9668;DHT22;4872;48.316;10.650;2024-03-22T17:01:39;16.70;61.40
9668;DHT22;4872;48.316;10.650;2024-03-22T17:04:06;16.50;61.10
9668;DHT22;4872;48.316;10.650;2024-03-22T17:06:33;16.50;61.30
9668;DHT22;4872;48.316;10.650;2024-03-22T17:08:59;16.60;61.30
9668;DHT22;4872;48.316;10.650;2024-03-22T17:11:27;16.30;61.80
9668;DHT22;4872;48.316;10.650;2024-03-22T17:13:52;16.40;62.00
9668;DHT22;4872;48.316;10.650;2024-03-22T17:16:21;16.50;62.50
9668;DHT22;4872;48.316;10.650;2024-03-22T17:18:47;16.40;62.70
9668;DHT22;4872;48.316;10.650;2024-03-22T17:21:16;16.40;63.10
9668;DHT22;4872;48.316;10.650;2024-03-22T17:23:42;16.40;63.30
9668;DHT22;4872;48.316;10.650;2024-03-22T17:26:09;16.30;63.60
9668;DHT22;4872;48.316;10.650;2024-03-22T17:28:35;16.20;63.60
9668;DHT22;4872;48.316;10.650;2024-03-22T17:31:02;16.20;64.10
9668;DHT22;4872;48.316;10.650;2024-03-22T17:33:28;16.10;64.40
9668;DHT22;4872;48.316;10.650;2024-03-22T17:35:54;16.00;64.90
9668;DHT22;4872;48.316;10.650;2024-03-22T17:38:23;16.00;64.90
9668;DHT22;4872;48.316;10.650;2024-03-22T17:40:50;15.90;65.30
9668;DHT22;4872;48.316;10.650;2024-03-22T17:43:16;15.70;65.50
9668;DHT22;4872;48.316;10.650;2024-03-22T17:45:42;15.70;65.90
9668;DHT22;4872;48.316;10.650;2024-03-22T17:48:08;15.50;65.80
9668;DHT22;4872;48.316;10.650;2024-03-22T17:50:35;15.60;66.20
9668;DHT22;4872;48.316;10.650;2024-03-22T17:53:01;15.70;66.60
9668;DHT22;4872;48.316;10.650;2024-03-22T17:55:29;15.60;66.40
9668;DHT22;4872;48.316;10.650;2024-03-22T17:57:55;15.50;66.20
9668;DHT22;4872;48.316;10.650;2024-03-22T18:00:21;15.40;65.80
9668;DHT22;4872;48.316;10.650;2024-03-22T18:02:47;15.40;66.60
9668;DHT22;4872;48.316;10.650;2024-03-22T18:05:14;15.30;66.10
9668;DHT22;4872;48.316;10.650;2024-03-22T18:07:40;15.40;66.40
9668;DHT22;4872;48.316;10.650;2024-03-22T18:10:07;15.50;66.40
9668;DHT22;4872;48.316;10.650;2024-03-22T18:12:35;15.40;65.50
9668;DHT22;4872;48.316;10.650;2024-03-22T18:15:02;15.50;65.90
9668;DHT22;4872;48.316;10.650;2024-03-22T18:17:28;15.40;66.10
9668;DHT22;4872;48.316;10.650;2024-03-22T18:19:55;15.50;66.20
9668;DHT22;4872;48.316;10.650;2024-03-22T18:22:21;15.30;64.90
9668;DHT22;4872;48.316;10.650;2024-03-22T18:24:47;15.30;65.50
9668;DHT22;4872;48.316;10.650;2024-03-22T18:27:13;15.40;66.00
9668;DHT22;4872;48.316;10.650;2024-03-22T18:29:41;15.20;65.40
9668;DHT22;4872;48.316;10.650;2024-03-22T18:32:07;15.10;64.60
9668;DHT22;4872;48.316;10.650;2024-03-22T18:34:34;15.20;64.10
9668;DHT22;4872;48.316;10.650;2024-03-22T18:37:00;15.20;63.60
9668;DHT22;4872;48.316;10.650;2024-03-22T18:39:27;15.10;63.70
9668;DHT22;4872;48.316;10.650;2024-03-22T18:45:15;15.00;65.10
9668;DHT22;4872;48.316;10.650;2024-03-22T18:48:00;14.90;66.00
9668;DHT22;4872;48.316;10.650;2024-03-22T18:50:26;14.80;64.50
9668;DHT22;4872;48.316;10.650;2024-03-22T18:56:31;14.80;65.90
9668;DHT22;4872;48.316;10.650;2024-03-22T18:58:58;15.00;66.00
9668;DHT22;4872;48.316;10.650;2024-03-22T19:01:25;14.80;65.10
9668;DHT22;4872;48.316;10.650;2024-03-22T19:05:12;14.60;64.70
9668;DHT22;4872;48.316;10.650;2024-03-22T19:06:57;14.80;66.00
9668;DHT22;4872;48.316;10.650;2024-03-22T19:09:23;14.80;67.70
9668;DHT22;4872;48.316;10.650;2024-03-22T19:11:49;14.60;67.20
9668;DHT22;4872;48.316;10.650;2024-03-22T19:14:16;14.60;66.30
9668;DHT22;4872;48.316;10.650;2024-03-22T19:16:45;14.60;64.10
9668;DHT22;4872;48.316;10.650;2024-03-22T19:19:11;14.80;65.20
9668;DHT22;4872;48.316;10.650;2024-03-22T19:21:38;14.60;65.20
9668;DHT22;4872;48.316;10.650;2024-03-22T19:24:07;14.60;63.30
9668;DHT22;4872;48.316;10.650;2024-03-22T19:27:59;14.80;62.80
9668;DHT22;4872;48.316;10.650;2024-03-22T19:29:31;14.70;62.30
9668;DHT22;4872;48.316;10.650;2024-03-22T19:31:59;14.70;62.80
9668;DHT22;4872;48.316;10.650;2024-03-22T19:34:26;14.80;62.40
9668;DHT22;4872;48.316;10.650;2024-03-22T19:36:52;14.80;61.50
9668;DHT22;4872;48.316;10.650;2024-03-22T19:39:18;14.70;61.40
9668;DHT22;4872;48.316;10.650;2024-03-22T19:41:44;14.80;61.30
9668;DHT22;4872;48.316;10.650;2024-03-22T19:44:11;14.80;61.00
9668;DHT22;4872;48.316;10.650;2024-03-22T19:46:38;14.80;60.20
9668;DHT22;4872;48.316;10.650;2024-03-22T19:49:06;14.70;60.30
9668;DHT22;4872;48.316;10.650;2024-03-22T19:51:32;14.70;59.70
9668;DHT22;4872;48.316;10.650;2024-03-22T19:53:59;14.80;60.00
9668;DHT22;4872;48.316;10.650;2024-03-22T19:56:27;14.70;60.10
9668;DHT22;4872;48.316;10.650;2024-03-22T19:58:54;14.80;59.90
9668;DHT22;4872;48.316;10.650;2024-03-22T20:04:14;14.80;59.60
9668;DHT22;4872;48.316;10.650;2024-03-22T20:06:40;14.80;59.90
9668;DHT22;4872;48.316;10.650;2024-03-22T20:09:08;14.80;59.70
9668;DHT22;4872;48.316;10.650;2024-03-22T20:11:34;14.80;59.90
9668;DHT22;4872;48.316;10.650;2024-03-22T20:14:01;14.80;59.80
9668;DHT22;4872;48.316;10.650;2024-03-22T20:16:29;14.70;61.90
9668;DHT22;4872;48.316;10.650;2024-03-22T20:18:55;14.20;69.60
9668;DHT22;4872;48.316;10.650;2024-03-22T20:21:23;13.90;70.40
9668;DHT22;4872;48.316;10.650;2024-03-22T20:23:49;13.90;71.20
9668;DHT22;4872;48.316;10.650;2024-03-22T20:26:15;13.60;72.00
9668;DHT22;4872;48.316;10.650;2024-03-22T20:28:42;13.60;72.30
9668;DHT22;4872;48.316;10.650;2024-03-22T20:31:19;13.70;72.60
9668;DHT22;4872;48.316;10.650;2024-03-22T20:33:59;13.50;72.20
9668;DHT22;4872;48.316;10.650;2024-03-22T20:36:45;13.40;71.50
